Time;durP1;ratioP1;P1;durP2;ratioP2;P2;SDS_P1;SDS_P2;PMS_P1;PMS_P2;Temp;Humidity;BMP_temperature;BMP_pressure;BME280_temperature;BME280_humidity;BME280_pressure;Samples;Min_cycle;Max_cycle;Signal;HPM_P1;HPM_P2
2022/01/05 00:01:08;;;;;;;;;;;;;;;3.24;93.67;97374.34;5041399;28;19924;-78
2022/01/05 00:03:34;;;;;;;;;;;;;;;3.35;92.18;97377.41;5036964;28;19920;-80
2022/01/05 00:05:59;;;;;;;;;;;;;;;3.60;89.70;97370.75;5048950;28;20390;-79
2022/01/05 00:08:25;;;;;;;;;;;;;;;2.88;89.33;97374.50;5030284;28;20509;-79
2022/01/05 00:10:53;;;;;;;;;;;;;;;2.91;83.29;97382.03;5046531;28;19917;-79
2022/01/05 00:13:19;;;;;;;;;;;;;;;2.73;78.95;97378.28;5046672;28;19976;-79
2022/01/05 00:15:44;;;;;;;;;;;;;;;2.58;74.13;97398.16;5045312;28;19928;-79
2022/01/05 00:18:10;;;;;;;;;;;;;;;2.62;68.26;97409.94;5046843;28;19952;-79
2022/01/05 00:20:35;;;;;;;;;;;;;;;2.43;64.28;97415.47;5046737;28;20391;-79
2022/01/05 00:23:01;;;;;;;;;;;;;;;2.47;58.61;97422.16;5045049;28;19917;-80
2022/01/05 00:25:26;;;;;;;;;;;;;;;2.28;56.80;97439.56;5050178;28;19920;-78
2022/01/05 00:27:51;;;;;;;;;;;;;;;2.24;53.45;97444.75;5063978;28;19948;-78
2022/01/05 00:30:17;;;;;;;;;;;;;;;2.06;50.41;97468.88;5047560;28;19963;-79
2022/01/05 00:32:42;;;;;;;;;;;;;;;2.03;45.51;97457.09;5049088;28;19920;-78
2022/01/05 00:35:08;;;;;;;;;;;;;;;1.94;41.58;97469.13;5052877;28;19984;-78
2022/01/05 00:37:34;;;;;;;;;;;;;;;2.00;37.88;97462.22;5068001;28;19923;-79
2022/01/05 00:39:59;;;;;;;;;;;;;;;1.97;34.76;97476.69;5049441;28;19916;-80
2022/01/05 00:42:24;;;;;;;;;;;;;;;2.02;31.38;97485.88;5031871;28;19924;-79
2022/01/05 00:44:50;;;;;;;;;;;;;;;1.62;29.83;97491.81;5047943;28;19912;-79
2022/01/05 00:47:16;;;;;;;;;;;;;;;1.67;25.08;97495.06;5030279;28;19943;-79
2022/01/05 00:49:41;;;;;;;;;;;;;;;1.71;22.60;97502.63;5046072;28;19920;-79
2022/01/05 00:52:07;;;;;;;;;;;;;;;1.71;20.45;97503.47;5030160;28;20313;-79
2022/01/05 00:54:32;;;;;;;;;;;;;;;1.81;18.10;97511.72;5031103;28;19923;-78
2022/01/05 00:56:57;;;;;;;;;;;;;;;2.05;14.83;97516.28;5028371;28;19927;-78
2022/01/05 00:59:24;;;;;;;;;;;;;;;1.95;14.38;97519.03;5027576;28;19966;-79
2022/01/05 01:01:49;;;;;;;;;;;;;;;2.11;12.01;97533.06;5029846;28;19921;-78
2022/01/05 01:04:15;;;;;;;;;;;;;;;2.08;12.10;97533.97;5030092;28;19923;-79
2022/01/05 01:06:41;;;;;;;;;;;;;;;2.20;10.55;97544.75;5029149;28;19921;-79
2022/01/05 01:09:06;;;;;;;;;;;;;;;2.12;10.54;97556.75;5044517;28;19920;-79
2022/01/05 01:11:32;;;;;;;;;;;;;;;2.12;10.77;97555.03;5043514;28;20472;-79
2022/01/05 01:13:57;;;;;;;;;;;;;;;2.21;9.48;97561.63;5042153;28;19921;-79
2022/01/05 01:16:23;;;;;;;;;;;;;;;2.23;9.06;97559.91;5044865;28;21301;-79
2022/01/05 01:18:48;;;;;;;;;;;;;;;2.21;8.45;97561.63;5042876;28;19916;-79
2022/01/05 01:21:14;;;;;;;;;;;;;;;2.36;7.83;97573.19;5045100;28;19913;-79
2022/01/05 01:23:42;;;;;;;;;;;;;;;2.30;8.08;97571.59;5049179;28;19924;-79
2022/01/05 01:26:07;;;;;;;;;;;;;;;2.42;7.68;97576.44;5028857;28;19921;-79
2022/01/05 01:28:33;;;;;;;;;;;;;;;2.69;8.00;97579.19;5043549;28;19940;-79
2022/01/05 01:30:58;;;;;;;;;;;;;;;2.68;8.87;97580.06;5058309;28;19923;-79
2022/01/05 01:33:24;;;;;;;;;;;;;;;2.61;9.41;97576.84;5044710;28;19925;-78
2022/01/05 01:35:49;;;;;;;;;;;;;;;2.62;10.33;97577.66;5045886;28;19917;-79
2022/01/05 01:38:15;;;;;;;;;;;;;;;3.45;8.32;97583.28;5045026;28;20369;-79
2022/01/05 01:40:40;;;;;;;;;;;;;;;3.90;12.43;97575.25;5041657;28;19931;-79
2022/01/05 01:43:05;;;;;;;;;;;;;;;4.05;17.86;97574.81;5046363;28;19944;-78
2022/01/05 01:45:31;;;;;;;;;;;;;;;3.40;26.58;97567.28;5026442;28;20302;-79
2022/01/05 01:47:57;;;;;;;;;;;;;;;3.48;26.40;97565.38;5042778;28;20367;-79
2022/01/05 01:50:22;;;;;;;;;;;;;;;3.57;27.85;97562.56;5042163;28;19939;-79
2022/01/05 01:52:48;;;;;;;;;;;;;;;3.97;30.80;97558.94;5044344;28;19921;-79
2022/01/05 01:55:13;;;;;;;;;;;;;;;3.52;36.83;97561.88;5044152;28;19921;-79
2022/01/05 01:57:39;;;;;;;;;;;;;;;3.42;37.31;97561.28;5043422;28;19932;-78
2022/01/05 02:00:06;;;;;;;;;;;;;;;2.80;42.21;97561.97;5044367;28;19924;-79
2022/01/05 02:02:31;;;;;;;;;;;;;;;2.97;39.11;97553.97;5043413;28;19936;-78
2022/01/05 02:04:56;;;;;;;;;;;;;;;3.38;36.46;97551.22;5040417;28;19913;-78
2022/01/05 02:07:22;;;;;;;;;;;;;;;2.96;40.62;97541.28;5041247;28;19931;-78
2022/01/05 02:09:47;;;;;;;;;;;;;;;2.78;42.84;97548.47;5041240;28;19920;-78
2022/01/05 02:12:13;;;;;;;;;;;;;;;3.06;42.17;97555.44;5040688;28;19925;-79
2022/01/05 02:14:38;;;;;;;;;;;;;;;3.04;40.31;97559.72;5043765;28;19936;-79
2022/01/05 02:17:09;;;;;;;;;;;;;;;3.22;40.66;97554.16;5030101;28;19925;-79
2022/01/05 02:19:35;;;;;;;;;;;;;;;2.63;46.68;97544.59;5041196;28;19991;-79
2022/01/05 02:22:01;;;;;;;;;;;;;;;2.82;43.13;97544.97;5023752;28;19917;-79
2022/01/05 02:24:26;;;;;;;;;;;;;;;3.51;40.48;97544.91;5041565;28;19924;-78
2022/01/05 02:26:52;;;;;;;;;;;;;;;2.99;47.27;97536.09;5043512;28;19959;-78
2022/01/05 02:29:18;;;;;;;;;;;;;;;2.73;46.86;97540.94;5045223;28;19928;-79
2022/01/05 02:31:43;;;;;;;;;;;;;;;2.99;44.69;97528.47;5045706;28;19921;-79
2022/01/05 02:34:08;;;;;;;;;;;;;;;2.69;46.14;97534.28;5043421;28;19927;-79
2022/01/05 02:36:34;;;;;;;;;;;;;;;2.56;45.52;97532.91;5025137;28;19917;-79
2022/01/05 02:38:59;;;;;;;;;;;;;;;2.80;43.00;97523.84;5044678;28;19917;-79
2022/01/05 02:41:25;;;;;;;;;;;;;;;3.15;41.34;97527.22;5039555;28;19928;-79
2022/01/05 02:43:50;;;;;;;;;;;;;;;2.44;46.92;97536.56;5042954;28;19928;-79
2022/01/05 02:46:20;;;;;;;;;;;;;;;2.73;43.26;97529.97;5026759;28;19927;-79
2022/01/05 02:48:46;;;;;;;;;;;;;;;2.74;41.78;97521.47;5018324;28;19897;-80
2022/01/05 02:51:11;;;;;;;;;;;;;;;2.67;43.01;97525.03;5047349;28;19917;-78
2022/01/05 02:53:37;;;;;;;;;;;;;;;3.19;41.45;97523.69;5035479;28;20422;-79
2022/01/05 02:56:03;;;;;;;;;;;;;;;2.69;44.92;97530.91;5045998;28;19923;-80
2022/01/05 02:58:28;;;;;;;;;;;;;;;2.77;46.14;97531.56;5030691;28;19924;-79
2022/01/05 03:00:54;;;;;;;;;;;;;;;2.71;42.35;97532.56;5047591;28;19921;-79
2022/01/05 03:03:19;;;;;;;;;;;;;;;2.46;43.28;97527.22;5029539;28;19924;-79
2022/01/05 03:05:44;;;;;;;;;;;;;;;2.11;41.07;97539.88;5048443;28;19923;-80
2022/01/05 03:08:10;;;;;;;;;;;;;;;2.33;37.55;97546.16;5032036;28;19920;-80
2022/01/05 03:10:35;;;;;;;;;;;;;;;2.13;36.43;97538.97;5035095;28;19917;-80
2022/01/05 03:13:01;;;;;;;;;;;;;;;2.26;33.82;97550.53;5048542;28;19924;-79
2022/01/05 03:15:26;;;;;;;;;;;;;;;1.90;34.24;97549.59;5046852;28;19916;-79
2022/01/05 03:17:52;;;;;;;;;;;;;;;2.05;32.24;97556.91;5033742;28;19924;-79
2022/01/05 03:20:20;;;;;;;;;;;;;;;2.25;29.71;97556.47;5049719;28;19983;-79
2022/01/05 03:22:46;;;;;;;;;;;;;;;2.03;31.93;97558.66;5048125;28;19913;-78
2022/01/05 03:25:18;;;;;;;;;;;;;;;2.08;31.32;97567.00;5029473;28;19918;-79
2022/01/05 03:27:44;;;;;;;;;;;;;;;1.97;29.75;97563.84;5045606;28;20039;-78
2022/01/05 03:30:11;;;;;;;;;;;;;;;1.85;30.32;97570.00;5065089;28;19917;-78
2022/01/05 03:32:47;;;;;;;;;;;;;;;1.86;28.12;97570.84;5030375;28;19920;-78
2022/01/05 03:35:12;;;;;;;;;;;;;;;1.83;27.90;97586.97;5034395;28;19924;-78
2022/01/05 03:37:38;;;;;;;;;;;;;;;1.95;26.19;97585.06;5047168;28;19939;-78
2022/01/05 03:40:04;;;;;;;;;;;;;;;1.99;25.16;97579.88;5031821;28;20016;-79
2022/01/05 03:42:29;;;;;;;;;;;;;;;1.95;24.95;97583.34;5029622;28;20325;-79
2022/01/05 03:44:54;;;;;;;;;;;;;;;1.88;25.66;97585.16;5029595;28;19976;-79
2022/01/05 03:47:20;;;;;;;;;;;;;;;1.74;26.12;97591.41;5031136;28;20008;-78
2022/01/05 03:49:45;;;;;;;;;;;;;;;1.72;24.79;97595.66;5048642;28;19920;-78
2022/01/05 03:52:11;;;;;;;;;;;;;;;1.70;24.06;97590.59;5028990;28;19927;-78
2022/01/05 03:54:38;;;;;;;;;;;;;;;1.71;23.53;97607.53;5030535;28;20194;-78
2022/01/05 03:57:04;;;;;;;;;;;;;;;1.67;22.72;97605.91;5028501;28;19996;-79
2022/01/05 03:59:29;;;;;;;;;;;;;;;1.68;21.73;97615.16;5047985;28;19935;-79
2022/01/05 04:01:54;;;;;;;;;;;;;;;1.76;21.00;97609.97;5045813;28;19936;-77
2022/01/05 04:04:20;;;;;;;;;;;;;;;1.62;21.93;97618.69;5030874;28;20457;-80
2022/01/05 04:06:45;;;;;;;;;;;;;;;1.64;21.85;97614.41;5042149;28;19925;-78
2022/01/05 04:09:11;;;;;;;;;;;;;;;1.93;21.67;97609.63;5030668;28;19920;-78
2022/01/05 04:11:36;;;;;;;;;;;;;;;1.93;21.98;97614.72;5049194;28;19920;-77
2022/01/05 04:14:02;;;;;;;;;;;;;;;1.83;22.58;97616.59;5036870;28;19964;-79
2022/01/05 04:16:27;;;;;;;;;;;;;;;1.73;23.39;97617.63;5047069;28;19924;-79
2022/01/05 04:18:53;;;;;;;;;;;;;;;1.77;23.70;97626.84;5048705;28;19896;-80
2022/01/05 04:21:18;;;;;;;;;;;;;;;1.87;23.08;97623.25;5066958;28;19913;-80
2022/01/05 04:23:43;;;;;;;;;;;;;;;1.72;24.87;97621.03;5049128;28;19917;-79
2022/01/05 04:26:09;;;;;;;;;;;;;;;1.59;25.45;97623.78;5046365;28;19972;-80
2022/01/05 04:28:35;;;;;;;;;;;;;;;1.66;25.01;97620.28;5046599;28;19927;-80
2022/01/05 04:31:00;;;;;;;;;;;;;;;1.87;23.39;97613.09;5028427;28;19925;-79
2022/01/05 04:33:26;;;;;;;;;;;;;;;1.59;25.68;97608.56;5027669;28;19931;-80
2022/01/05 04:35:51;;;;;;;;;;;;;;;1.60;25.43;97615.31;5030964;28;19958;-79
2022/01/05 04:38:17;;;;;;;;;;;;;;;1.64;25.55;97611.00;5031031;28;19920;-80
2022/01/05 04:40:43;;;;;;;;;;;;;;;1.59;26.10;97618.72;5026046;28;19924;-80
2022/01/05 04:43:09;;;;;;;;;;;;;;;1.63;25.45;97620.34;5028260;28;19960;-79
2022/01/05 04:45:34;;;;;;;;;;;;;;;1.70;25.09;97622.78;5045721;28;20322;-79
2022/01/05 04:47:59;;;;;;;;;;;;;;;1.62;26.32;97638.13;5045095;28;19944;-78
2022/01/05 04:50:25;;;;;;;;;;;;;;;1.52;27.70;97637.44;5033180;28;19960;-79
2022/01/05 04:52:50;;;;;;;;;;;;;;;1.74;27.30;97629.47;5046689;28;19924;-78
2022/01/05 04:55:15;;;;;;;;;;;;;;;1.61;29.14;97623.78;5047137;28;20492;-78
2022/01/05 04:57:41;;;;;;;;;;;;;;;1.59;29.49;97633.94;5027337;28;19916;-79
2022/01/05 05:00:06;;;;;;;;;;;;;;;1.54;29.64;97630.66;5042173;28;19944;-79
2022/01/05 05:02:32;;;;;;;;;;;;;;;1.65;29.47;97633.00;5023592;28;19925;-78
2022/01/05 05:04:57;;;;;;;;;;;;;;;1.58;30.15;97637.34;5046349;28;19916;-79
2022/01/05 05:07:23;;;;;;;;;;;;;;;1.48;31.06;97629.94;5038234;28;19925;-79
2022/01/05 05:09:48;;;;;;;;;;;;;;;1.54;30.22;97633.19;5020542;28;19921;-79
2022/01/05 05:12:14;;;;;;;;;;;;;;;1.40;31.42;97632.59;5009741;28;20024;-79
2022/01/05 05:14:39;;;;;;;;;;;;;;;1.33;31.70;97636.94;5022485;28;19963;-80
2022/01/05 05:17:05;;;;;;;;;;;;;;;1.31;32.80;97632.75;5024719;28;19968;-80
2022/01/05 05:19:31;;;;;;;;;;;;;;;1.41;33.48;97629.19;5025048;28;19917;-79
2022/01/05 05:21:57;;;;;;;;;;;;;;;1.21;35.75;97625.31;5021403;28;20030;-79
2022/01/05 05:24:22;;;;;;;;;;;;;;;1.19;36.20;97629.56;5021820;28;20426;-78
2022/01/05 05:26:47;;;;;;;;;;;;;;;1.24;37.06;97622.72;5022041;28;19921;-81
2022/01/05 05:29:13;;;;;;;;;;;;;;;1.09;38.62;97628.03;5022647;28;19984;-81
2022/01/05 05:31:38;;;;;;;;;;;;;;;1.21;39.46;97632.91;5022105;28;19920;-80
2022/01/05 05:34:04;;;;;;;;;;;;;;;1.11;40.41;97628.84;5022398;28;19917;-80
2022/01/05 05:36:29;;;;;;;;;;;;;;;1.33;41.18;97626.81;4998186;28;20353;-79
2022/01/05 05:38:54;;;;;;;;;;;;;;;1.07;44.42;97629.75;5021120;28;19957;-80
2022/01/05 05:41:20;;;;;;;;;;;;;;;1.41;43.83;97630.03;5023382;28;19928;-81
2022/01/05 05:43:45;;;;;;;;;;;;;;;1.32;46.44;97631.88;5002383;28;19949;-79
2022/01/05 05:46:10;;;;;;;;;;;;;;;1.17;47.88;97620.31;5021032;28;20016;-79
2022/01/05 05:48:36;;;;;;;;;;;;;;;1.43;48.57;97627.47;5020159;28;19953;-80
2022/01/05 05:51:01;;;;;;;;;;;;;;;1.10;54.58;97624.66;5021886;28;19917;-79
2022/01/05 05:53:27;;;;;;;;;;;;;;;1.37;55.32;97615.75;5005265;28;19922;-79
2022/01/05 05:55:52;;;;;;;;;;;;;;;1.37;57.54;97618.28;5023271;28;19921;-77
2022/01/05 05:58:18;;;;;;;;;;;;;;;1.65;58.77;97615.25;5004118;28;19921;-79
2022/01/05 06:00:43;;;;;;;;;;;;;;;1.63;62.46;97614.44;5027436;28;20422;-80
2022/01/05 06:03:08;;;;;;;;;;;;;;;1.39;66.28;97615.69;5019381;28;19977;-78
2022/01/05 06:05:34;;;;;;;;;;;;;;;1.27;67.02;97621.00;5023294;28;19988;-80
2022/01/05 06:07:59;;;;;;;;;;;;;;;1.20;68.52;97615.19;5064550;28;20803;-79
2022/01/05 06:10:25;;;;;;;;;;;;;;;1.56;67.89;97626.38;5044555;28;20286;-79
2022/01/05 06:12:50;;;;;;;;;;;;;;;1.47;71.09;97613.88;5028138;28;19921;-81
2022/01/05 06:15:16;;;;;;;;;;;;;;;1.75;72.52;97618.44;5042901;28;19920;-79
2022/01/05 06:17:41;;;;;;;;;;;;;;;1.42;76.17;97618.19;5045250;28;19927;-79
2022/01/05 06:20:07;;;;;;;;;;;;;;;1.53;77.54;97626.47;5029470;28;19971;-79
2022/01/05 06:22:33;;;;;;;;;;;;;;;1.34;80.95;97625.09;5045357;28;19951;-77
2022/01/05 06:24:58;;;;;;;;;;;;;;;1.45;81.12;97621.50;5065851;28;19921;-80
2022/01/05 06:27:23;;;;;;;;;;;;;;;1.56;82.84;97623.84;5049421;28;19991;-79
2022/01/05 06:29:49;;;;;;;;;;;;;;;1.33;86.61;97616.66;5031540;28;19913;-78
2022/01/05 06:32:14;;;;;;;;;;;;;;;1.43;86.61;97614.78;5051349;28;19939;-78
2022/01/05 06:34:40;;;;;;;;;;;;;;;1.10;90.80;97622.13;5031639;28;19944;-79
2022/01/05 06:37:05;;;;;;;;;;;;;;;1.32;89.26;97619.22;5050222;28;19995;-78
2022/01/05 06:39:30;;;;;;;;;;;;;;;1.33;91.76;97621.72;5033827;28;19917;-80
2022/01/05 06:41:56;;;;;;;;;;;;;;;1.35;92.73;97629.31;5034721;28;19913;-78
2022/01/05 06:44:21;;;;;;;;;;;;;;;1.13;95.12;97627.13;5049028;28;19991;-78
2022/01/05 06:46:47;;;;;;;;;;;;;;;1.50;92.09;97634.09;5049960;28;20008;-79
2022/01/05 06:49:12;;;;;;;;;;;;;;;1.63;93.84;97630.47;5049861;28;19961;-78
2022/01/05 06:51:38;;;;;;;;;;;;;;;1.36;97.49;97636.88;5051759;28;19920;-80
2022/01/05 06:54:03;;;;;;;;;;;;;;;1.55;96.29;97637.41;5033130;28;20390;-78
2022/01/05 06:56:28;;;;;;;;;;;;;;;1.46;97.71;97638.41;5033896;28;20111;-79
2022/01/05 06:58:54;;;;;;;;;;;;;;;1.50;99.28;97640.88;5033826;28;19927;-80
2022/01/05 07:01:19;;;;;;;;;;;;;;;1.42;100.00;97634.25;5034503;28;20674;-77
2022/01/05 07:03:45;;;;;;;;;;;;;;;1.73;100.00;97630.31;5050107;28;20023;-78
2022/01/05 07:06:10;;;;;;;;;;;;;;;1.91;100.00;97645.19;5059962;28;19921;-79
2022/01/05 07:08:36;;;;;;;;;;;;;;;1.68;100.00;97638.00;5047524;28;20545;-78
2022/01/05 07:11:01;;;;;;;;;;;;;;;1.91;100.00;97644.38;5027283;28;19919;-78
2022/01/05 07:13:26;;;;;;;;;;;;;;;1.73;100.00;97640.47;5044329;28;19921;-80
2022/01/05 07:15:52;;;;;;;;;;;;;;;1.87;100.00;97641.03;5028823;28;19912;-79
2022/01/05 07:18:17;;;;;;;;;;;;;;;1.84;100.00;97646.19;5043373;28;19975;-79
2022/01/05 07:20:42;;;;;;;;;;;;;;;1.48;100.00;97645.97;5034735;28;19951;-80
2022/01/05 07:23:11;;;;;;;;;;;;;;;1.81;100.00;97638.63;5047156;28;19929;-79
2022/01/05 07:25:37;;;;;;;;;;;;;;;1.68;100.00;97646.44;5034030;28;19914;-79
2022/01/05 07:28:03;;;;;;;;;;;;;;;1.50;100.00;97649.31;5047502;28;20024;-79
2022/01/05 07:30:28;;;;;;;;;;;;;;;1.35;100.00;97657.22;5044330;28;19917;-76
2022/01/05 07:32:53;;;;;;;;;;;;;;;1.93;100.00;97648.53;5026487;28;19926;-79
2022/01/05 07:35:19;;;;;;;;;;;;;;;1.66;100.00;97647.34;5045477;28;19944;-80
2022/01/05 07:37:44;;;;;;;;;;;;;;;1.73;100.00;97645.53;5048869;28;19917;-79
2022/01/05 07:40:10;;;;;;;;;;;;;;;1.71;100.00;97648.13;5047046;28;19970;-78
2022/01/05 07:42:36;;;;;;;;;;;;;;;1.67;100.00;97647.34;5043184;28;19956;-78
2022/01/05 07:45:06;;;;;;;;;;;;;;;1.73;100.00;97640.47;5030685;28;19920;-80
2022/01/05 07:47:31;;;;;;;;;;;;;;;1.74;100.00;97642.16;5040522;28;19948;-78
2022/01/05 07:49:57;;;;;;;;;;;;;;;1.92;100.00;97648.59;5043874;28;19924;-80
2022/01/05 07:52:22;;;;;;;;;;;;;;;1.95;100.00;97645.97;5023828;28;19929;-77
2022/01/05 07:54:47;;;;;;;;;;;;;;;1.95;100.00;97646.81;5041580;28;20378;-79
2022/01/05 07:57:13;;;;;;;;;;;;;;;2.14;100.00;97654.06;5041355;28;20232;-78
2022/01/05 07:59:38;;;;;;;;;;;;;;;1.92;100.00;97656.22;5043513;28;19920;-78
2022/01/05 08:02:04;;;;;;;;;;;;;;;1.88;100.00;97665.56;5036987;28;19917;-77
2022/01/05 08:04:29;;;;;;;;;;;;;;;1.75;100.00;97669.19;5047216;28;19920;-78
2022/01/05 08:06:54;;;;;;;;;;;;;;;2.30;100.00;97663.91;5041208;28;19936;-78
2022/01/05 08:09:20;;;;;;;;;;;;;;;1.94;100.00;97680.69;5044249;28;20007;-79
2022/01/05 08:11:45;;;;;;;;;;;;;;;2.33;100.00;97668.09;5027992;28;19924;-79
2022/01/05 08:14:10;;;;;;;;;;;;;;;1.88;100.00;97670.66;5042219;28;20023;-79
2022/01/05 08:16:36;;;;;;;;;;;;;;;1.79;100.00;97691.13;5044963;28;19913;-79
2022/01/05 08:19:01;;;;;;;;;;;;;;;2.06;100.00;97689.78;5043951;28;19917;-77
2022/01/05 08:21:27;;;;;;;;;;;;;;;1.96;100.00;97683.19;5027358;28;19929;-79
2022/01/05 08:23:52;;;;;;;;;;;;;;;1.64;100.00;97677.84;5027085;28;19928;-78
2022/01/05 08:26:18;;;;;;;;;;;;;;;1.92;100.00;97672.28;5024268;28;19924;-78
2022/01/05 08:28:43;;;;;;;;;;;;;;;2.10;100.00;97676.16;5041679;28;19925;-79
2022/01/05 08:31:09;;;;;;;;;;;;;;;2.03;100.00;97680.53;5024730;28;19936;-79
2022/01/05 08:33:34;;;;;;;;;;;;;;;1.86;100.00;97669.84;5040832;28;19928;-79
2022/01/05 08:36:02;;;;;;;;;;;;;;;2.23;100.00;97677.56;5039550;28;19917;-78
2022/01/05 08:38:27;;;;;;;;;;;;;;;2.09;100.00;97689.72;5040050;28;21160;-81
2022/01/05 08:40:54;;;;;;;;;;;;;;;2.09;100.00;97682.91;5039006;28;19921;-79
2022/01/05 08:43:19;;;;;;;;;;;;;;;2.02;100.00;97689.00;5043245;28;19917;-77
2022/01/05 08:45:44;;;;;;;;;;;;;;;2.41;100.00;97680.63;5041889;28;19997;-79
2022/01/05 08:48:10;;;;;;;;;;;;;;;2.53;100.00;97675.28;5044106;28;19932;-79
2022/01/05 08:50:36;;;;;;;;;;;;;;;2.54;100.00;97676.13;5035867;28;19917;-77
2022/01/05 08:53:02;;;;;;;;;;;;;;;2.42;100.00;97678.06;5040043;28;19920;-77
2022/01/05 08:55:33;;;;;;;;;;;;;;;2.16;100.00;97681.09;5018605;28;20316;-77
2022/01/05 08:57:58;;;;;;;;;;;;;;;2.35;100.00;97694.28;5041656;28;19939;-77
2022/01/05 09:00:24;;;;;;;;;;;;;;;2.61;100.00;97688.66;5025882;28;19927;-78
2022/01/05 09:02:50;;;;;;;;;;;;;;;3.03;100.00;97687.75;5043148;28;19956;-79
2022/01/05 09:05:16;;;;;;;;;;;;;;;2.82;100.00;97676.34;5015951;28;19924;-79
2022/01/05 09:07:42;;;;;;;;;;;;;;;2.49;100.00;97671.16;5040574;28;19925;-78
2022/01/05 09:10:07;;;;;;;;;;;;;;;2.50;100.00;97666.00;5043014;28;19924;-77
2022/01/05 09:12:33;;;;;;;;;;;;;;;2.59;100.00;97653.97;5039097;28;20517;-79
2022/01/05 09:14:58;;;;;;;;;;;;;;;2.59;100.00;97666.69;5039058;28;19921;-79
2022/01/05 09:17:25;;;;;;;;;;;;;;;2.63;100.00;97681.84;5042909;28;20007;-79
2022/01/05 09:19:50;;;;;;;;;;;;;;;2.62;100.00;97659.00;5038184;28;19950;-79
2022/01/05 09:22:16;;;;;;;;;;;;;;;2.48;100.00;97662.66;5033673;28;19913;-79
2022/01/05 09:24:41;;;;;;;;;;;;;;;2.35;100.00;97668.88;5039676;28;20366;-77
2022/01/05 09:27:07;;;;;;;;;;;;;;;2.49;100.00;97669.44;5031225;28;19917;-76
2022/01/05 09:29:33;;;;;;;;;;;;;;;2.67;100.00;97668.19;5034611;28;20112;-77
2022/01/05 09:32:03;;;;;;;;;;;;;;;2.78;100.00;97662.03;5034289;28;20015;-76
2022/01/05 09:34:29;;;;;;;;;;;;;;;2.50;100.00;97671.09;5036790;28;20495;-77
2022/01/05 09:36:59;;;;;;;;;;;;;;;2.33;100.00;97677.38;5040824;28;20004;-76
2022/01/05 09:42:08;;;;;;;;;;;;;;;2.53;100.00;97690.50;5034820;28;19920;-79
2022/01/05 09:44:41;;;;;;;;;;;;;;;2.40;100.00;97684.88;5035835;28;19917;-78
2022/01/05 09:47:30;;;;;;;;;;;;;;;2.64;100.00;97682.66;5032890;28;19913;-77
2022/01/05 09:50:00;;;;;;;;;;;;;;;2.56;100.00;97682.84;5014037;28;20228;-76
2022/01/05 09:52:25;;;;;;;;;;;;;;;2.61;100.00;97677.66;5037056;28;20066;-79
2022/01/05 09:54:50;;;;;;;;;;;;;;;2.68;100.00;97674.94;5034937;28;19964;-76
2022/01/05 09:57:16;;;;;;;;;;;;;;;2.69;100.00;97670.69;5019009;28;20286;-77
2022/01/05 09:59:42;;;;;;;;;;;;;;;2.79;100.00;97686.59;5024023;28;19963;-77
2022/01/05 10:02:07;;;;;;;;;;;;;;;2.61;100.00;97672.59;5027785;28;19901;-76
2022/01/05 10:04:36;;;;;;;;;;;;;;;2.56;100.00;97687.09;5028880;28;19913;-77
2022/01/05 10:07:02;;;;;;;;;;;;;;;2.57;100.00;97699.75;5021291;28;19988;-76
2022/01/05 10:09:28;;;;;;;;;;;;;;;2.28;100.00;97680.00;5025660;28;19921;-77
2022/01/05 10:11:53;;;;;;;;;;;;;;;2.35;97.81;97690.91;5025508;28;19920;-77
2022/01/05 10:14:18;;;;;;;;;;;;;;;2.67;94.15;97687.72;5019753;28;20013;-78
2022/01/05 10:17:01;;;;;;;;;;;;;;;3.16;90.47;97691.69;5006099;28;20399;-75
2022/01/05 10:19:26;;;;;;;;;;;;;;;2.85;92.09;97696.63;5010362;28;20402;-75
2022/01/05 10:21:51;;;;;;;;;;;;;;;2.62;91.72;97689.50;5024158;28;20004;-80
2022/01/05 10:24:17;;;;;;;;;;;;;;;2.58;91.77;97687.88;5007913;28;19927;-78
2022/01/05 10:26:42;;;;;;;;;;;;;;;2.78;88.88;97680.66;5003543;28;19913;-78
2022/01/05 10:29:18;;;;;;;;;;;;;;;2.68;89.64;97695.28;5008351;28;19948;-78
2022/01/05 10:31:44;;;;;;;;;;;;;;;2.90;87.50;97694.84;5019555;28;20020;-74
2022/01/05 10:34:14;;;;;;;;;;;;;;;2.89;86.29;97691.44;5022470;28;19984;-74
2022/01/05 10:36:49;;;;;;;;;;;;;;;2.60;88.47;97697.16;5023695;28;19913;-76
2022/01/05 10:39:15;;;;;;;;;;;;;;;2.31;87.09;97685.06;5024417;28;20003;-77
2022/01/05 10:41:43;;;;;;;;;;;;;;;1.76;85.73;97701.34;5022379;28;19925;-77
2022/01/05 10:44:14;;;;;;;;;;;;;;;1.97;78.27;97705.19;5005064;28;19953;-78
2022/01/05 10:46:44;;;;;;;;;;;;;;;2.11;74.73;97712.53;5021459;28;20366;-78
2022/01/05 10:49:10;;;;;;;;;;;;;;;2.06;73.00;97700.75;4999936;28;20004;-80
2022/01/05 10:51:35;;;;;;;;;;;;;;;1.83;71.92;97708.81;5017931;28;20020;-78
2022/01/05 10:54:12;;;;;;;;;;;;;;;2.24;67.12;97706.38;5016956;28;20405;-76
2022/01/05 10:56:38;;;;;;;;;;;;;;;1.72;67.44;97709.88;5005113;28;20024;-78
2022/01/05 10:59:03;;;;;;;;;;;;;;;1.74;65.19;97723.38;5009590;28;20209;-79
2022/01/05 11:01:31;;;;;;;;;;;;;;;1.91;60.51;97730.69;4995426;28;20473;-79
2022/01/05 11:03:57;;;;;;;;;;;;;;;1.86;59.00;97743.44;4996284;28;19918;-76
2022/01/05 11:06:22;;;;;;;;;;;;;;;1.98;56.66;97738.16;5024258;28;19921;-76
2022/01/05 11:08:55;;;;;;;;;;;;;;;2.21;54.40;97736.88;5022201;28;19924;-78
2022/01/05 11:11:32;;;;;;;;;;;;;;;2.02;54.83;97765.16;5034283;28;19921;-79
2022/01/05 11:13:59;;;;;;;;;;;;;;;2.28;52.21;97753.69;5038512;28;19928;-78
2022/01/05 11:16:25;;;;;;;;;;;;;;;2.50;51.03;97751.56;5040923;28;19924;-78
2022/01/05 11:18:50;;;;;;;;;;;;;;;2.17;53.51;97753.91;5040060;28;19921;-78
2022/01/05 11:21:18;;;;;;;;;;;;;;;2.21;50.86;97764.81;5036815;28;19920;-76
2022/01/05 11:23:43;;;;;;;;;;;;;;;2.07;49.24;97785.41;5032959;28;19917;-77
2022/01/05 11:26:09;;;;;;;;;;;;;;;2.18;48.08;97786.03;5025709;28;19984;-78
2022/01/05 11:28:34;;;;;;;;;;;;;;;2.03;48.42;97777.00;5035252;28;19924;-77
2022/01/05 11:31:00;;;;;;;;;;;;;;;2.63;44.71;97780.13;5038124;28;19924;-77
2022/01/05 11:33:25;;;;;;;;;;;;;;;2.16;49.27;97794.56;5019836;28;19936;-77
2022/01/05 11:35:51;;;;;;;;;;;;;;;2.29;48.06;97784.16;5037146;28;19921;-77
2022/01/05 11:38:16;;;;;;;;;;;;;;;2.37;46.75;97796.69;5020777;28;19917;-79
2022/01/05 11:40:51;;;;;;;;;;;;;;;2.43;45.47;97798.31;5037297;28;19921;-77
2022/01/05 11:43:26;;;;;;;;;;;;;;;2.60;44.04;97805.59;5018835;28;20378;-77
2022/01/05 11:45:51;;;;;;;;;;;;;;;2.50;45.32;97813.38;5037325;28;19917;-76
2022/01/05 11:48:24;;;;;;;;;;;;;;;2.25;46.06;97818.09;5034375;28;19917;-77
2022/01/05 11:50:51;;;;;;;;;;;;;;;2.76;43.17;97803.59;5032915;28;19916;-77
2022/01/05 11:53:17;;;;;;;;;;;;;;;2.66;44.31;97823.28;5038830;28;20001;-75
2022/01/05 11:55:58;;;;;;;;;;;;;;;2.25;42.95;97828.25;5035817;28;20543;-75
2022/01/05 11:58:26;;;;;;;;;;;;;;;2.68;38.15;97821.53;5036479;28;19956;-79
2022/01/05 12:01:11;;;;;;;;;;;;;;;2.71;38.23;97831.63;5035723;28;19944;-77
2022/01/05 12:03:58;;;;;;;;;;;;;;;2.27;40.60;97830.75;5037700;28;19995;-78
2022/01/05 12:06:27;;;;;;;;;;;;;;;2.45;38.63;97835.50;5041802;28;19966;-78
2022/01/05 12:08:53;;;;;;;;;;;;;;;2.48;36.94;97838.00;5022014;28;19913;-76
2022/01/05 12:11:28;;;;;;;;;;;;;;;2.87;35.93;97833.03;5040771;28;19916;-79
2022/01/05 12:13:54;;;;;;;;;;;;;;;2.95;34.42;97854.94;5056757;28;19928;-77
2022/01/05 12:16:19;;;;;;;;;;;;;;;2.38;39.23;97861.91;5042705;28;20302;-77
2022/01/05 12:18:46;;;;;;;;;;;;;;;2.55;36.33;97855.69;5039920;28;19919;-76
2022/01/05 12:21:34;;;;;;;;;;;;;;;2.48;35.71;97848.16;5020617;28;20014;-76
2022/01/05 12:24:00;;;;;;;;;;;;;;;2.28;36.00;97860.38;5027917;28;19952;-79
2022/01/05 12:26:25;;;;;;;;;;;;;;;2.33;33.05;97868.78;5038158;28;19967;-76
2022/01/05 12:28:52;;;;;;;;;;;;;;;2.08;32.77;97875.97;5041766;28;20020;-79
2022/01/05 12:31:17;;;;;;;;;;;;;;;2.33;29.78;97878.06;5036686;28;19917;-77
2022/01/05 12:33:48;;;;;;;;;;;;;;;2.55;28.21;97850.59;5038315;28;19972;-78
2022/01/05 12:36:15;;;;;;;;;;;;;;;2.59;26.87;97859.84;5022226;28;19916;-77
2022/01/05 12:38:54;;;;;;;;;;;;;;;2.83;27.86;97904.28;5038970;28;20375;-81
2022/01/05 12:41:23;;;;;;;;;;;;;;;2.37;28.62;97902.56;5038952;28;19923;-80
2022/01/05 12:43:50;;;;;;;;;;;;;;;2.37;27.09;97915.28;5037965;28;19917;-79
2022/01/05 12:46:16;;;;;;;;;;;;;;;2.47;24.53;97912.56;5037080;28;19987;-77
2022/01/05 12:48:43;;;;;;;;;;;;;;;2.26;23.89;97920.56;5022853;28;20038;-78
2022/01/05 12:51:14;;;;;;;;;;;;;;;2.13;23.93;97924.16;5034973;28;19966;-78
2022/01/05 12:54:02;;;;;;;;;;;;;;;2.32;20.98;97930.59;5055125;28;19916;-78